Time;durP1;ratioP1;P1;durP2;ratioP2;P2;SDS_P1;SDS_P2;PMS_P1;PMS_P2;Temp;Humidity;BMP_temperature;BMP_pressure;BME280_temperature;BME280_humidity;BME280_pressure;Samples;Min_cycle;Max_cycle;Signal;HPM_P1;HPM_P2
2021/01/26 00:01:43;;;;;;;110.90;88.37;;;19.00;49.40;;;;;;4456498;59;21498;-27
2021/01/26 00:06:44;;;;;;;103.05;81.70;;;19.00;49.40;;;;;;4481838;59;21231;-29
2021/01/26 00:11:45;;;;;;;99.25;82.03;;;19.00;49.30;;;;;;4442079;59;21604;-27
2021/01/26 00:16:46;;;;;;;104.28;86.47;;;19.00;49.30;;;;;;4456079;59;21114;-31
2021/01/26 00:21:47;;;;;;;106.90;87.30;;;19.00;49.30;;;;;;4448239;59;21062;-28
2021/01/26 00:26:48;;;;;;;103.05;85.28;;;19.00;49.10;;;;;;4461232;59;21480;-31
2021/01/26 00:31:49;;;;;;;99.07;83.15;;;19.00;49.10;;;;;;4442184;59;21054;-32
2021/01/26 00:36:50;;;;;;;99.22;82.05;;;19.00;49.00;;;;;;4475995;59;22070;-32
2021/01/26 00:41:51;;;;;;;98.30;81.07;;;19.00;49.00;;;;;;4457370;59;21058;-33
2021/01/26 00:46:51;;;;;;;96.82;80.18;;;19.00;49.00;;;;;;4444583;59;21059;-33
2021/01/26 00:51:52;;;;;;;93.80;78.10;;;19.00;49.00;;;;;;4458124;59;21053;-34
2021/01/26 00:56:53;;;;;;;97.90;80.18;;;19.00;49.00;;;;;;4449470;59;21552;-28
2021/01/26 01:01:54;;;;;;;101.60;83.07;;;19.00;49.00;;;;;;4449155;59;21150;-29
2021/01/26 01:06:55;;;;;;;96.68;80.47;;;19.00;49.20;;;;;;4451698;59;21586;-28
2021/01/26 01:11:56;;;;;;;95.32;79.75;;;19.00;48.90;;;;;;4440989;59;21124;-32
2021/01/26 01:16:57;;;;;;;93.03;77.95;;;19.00;48.90;;;;;;4440689;63;21765;-26
2021/01/26 01:21:57;;;;;;;92.37;77.45;;;18.90;48.80;;;;;;4443381;59;21069;-26
2021/01/26 01:26:58;;;;;;;93.57;78.12;;;18.90;49.30;;;;;;4478803;59;21568;-32
2021/01/26 01:32:00;;;;;;;93.55;77.43;;;19.00;48.90;;;;;;4449876;59;21109;-29
2021/01/26 01:37:00;;;;;;;90.45;74.43;;;19.00;49.30;;;;;;4464700;59;21067;-27
2021/01/26 01:42:09;;;;;;;88.43;72.75;;;19.00;49.00;;;;;;4450540;59;21119;-34
2021/01/26 01:47:19;;;;;;;90.90;75.28;;;18.90;48.80;;;;;;4440962;59;21519;-34
2021/01/26 01:52:25;;;;;;;87.68;74.22;;;18.90;48.90;;;;;;4443986;59;21143;-36
2021/01/26 01:57:32;;;;;;;85.97;70.15;;;18.90;48.90;;;;;;4464910;59;21555;-34
2021/01/26 02:02:37;;;;;;;87.40;72.55;;;18.90;48.70;;;;;;4448556;59;21118;-33
2021/01/26 02:07:38;;;;;;;85.12;70.93;;;18.90;48.60;;;;;;4444816;59;21094;-35
2021/01/26 02:12:39;;;;;;;85.70;72.85;;;18.90;48.60;;;;;;4509578;59;21582;-34
2021/01/26 02:18:03;;;;;;;80.72;66.97;;;18.90;48.80;;;;;;4440075;59;21073;-32
2021/01/26 02:26:01;;;;;;;82.95;69.20;;;18.90;48.70;;;;;;4470349;59;21122;-32
2021/01/26 02:37:32;;;;;;;79.65;65.40;;;18.90;48.60;;;;;;4463087;59;21053;-34
2021/01/26 02:42:48;;;;;;;78.05;65.22;;;18.90;49.00;;;;;;4504710;59;21202;-29
2021/01/26 02:48:13;;;;;;;78.60;65.05;;;18.90;48.40;;;;;;4451206;59;21220;-31
2021/01/26 02:53:57;;;;;;;75.10;63.50;;;18.90;48.70;;;;;;4453121;59;21074;-37
2021/01/26 02:59:14;;;;;;;76.10;63.95;;;18.90;48.40;;;;;;4471722;59;21098;-30
2021/01/26 03:04:24;;;;;;;77.22;63.47;;;18.90;48.60;;;;;;4440488;63;21102;-34
2021/01/26 03:09:33;;;;;;;74.78;60.70;;;18.90;48.40;;;;;;4457664;59;21022;-31
2021/01/26 03:14:46;;;;;;;72.65;60.67;;;18.90;48.40;;;;;;4462508;59;21077;-31
2021/01/26 03:19:51;;;;;;;68.78;59.00;;;18.90;48.60;;;;;;4476140;59;21289;-25
2021/01/26 03:24:55;;;;;;;70.07;59.45;;;18.90;48.40;;;;;;4453807;59;21041;-34
2021/01/26 03:29:58;;;;;;;71.47;58.92;;;18.90;48.60;;;;;;4455978;59;21054;-35
2021/01/26 03:35:00;;;;;;;71.20;59.30;;;18.90;48.10;;;;;;4454190;59;21102;-36
2021/01/26 03:40:01;;;;;;;69.35;57.38;;;18.90;48.10;;;;;;4439661;63;21111;-26
2021/01/26 03:45:03;;;;;;;65.95;56.13;;;18.90;48.30;;;;;;4445822;59;21536;-30
2021/01/26 03:50:37;;;;;;;68.72;56.42;;;18.90;48.30;;;;;;4440512;63;21066;-33
2021/01/26 03:55:58;;;;;;;62.72;53.95;;;18.90;48.30;;;;;;4477403;59;21050;-30
2021/01/26 04:01:32;;;;;;;67.93;56.78;;;18.90;48.30;;;;;;4439281;63;21200;-34
2021/01/26 04:07:43;;;;;;;64.93;55.28;;;18.90;48.40;;;;;;4460971;59;21054;-34
2021/01/26 04:12:48;;;;;;;62.53;53.25;;;18.90;48.40;;;;;;4464799;59;21066;-28
2021/01/26 04:17:53;;;;;;;64.25;54.28;;;18.90;48.10;;;;;;4457346;59;21058;-32
2021/01/26 04:22:56;;;;;;;60.78;51.72;;;18.90;48.40;;;;;;4463176;59;21699;-35
2021/01/26 04:27:59;;;;;;;62.42;50.88;;;18.90;48.10;;;;;;4451057;59;21042;-28
2021/01/26 04:33:06;;;;;;;57.75;48.75;;;18.90;48.20;;;;;;4440071;62;21050;-34
2021/01/26 04:38:08;;;;;;;59.58;50.70;;;18.90;48.00;;;;;;4441682;59;21554;-35
2021/01/26 04:46:16;;;;;;;58.50;48.53;;;18.90;48.20;;;;;;4440699;59;21410;-36
2021/01/26 04:53:20;;;;;;;56.22;46.28;;;18.90;48.20;;;;;;4453901;59;21077;-35
2021/01/26 04:58:47;;;;;;;55.20;46.45;;;18.90;48.00;;;;;;4476373;59;21097;-30
2021/01/26 05:04:14;;;;;;;55.90;47.33;;;18.90;48.00;;;;;;4463438;59;21137;-27
2021/01/26 05:09:20;;;;;;;53.15;46.15;;;18.90;47.90;;;;;;4446965;59;21053;-26
2021/01/26 05:14:30;;;;;;;56.00;47.88;;;18.90;48.10;;;;;;4440529;59;21030;-26
2021/01/26 05:19:54;;;;;;;54.72;46.95;;;18.90;48.00;;;;;;4451228;59;21105;-34
2021/01/26 05:25:07;;;;;;;52.10;44.05;;;18.80;47.70;;;;;;4440696;59;21556;-24
2021/01/26 05:30:18;;;;;;;52.50;44.90;;;18.80;47.90;;;;;;4444547;59;21956;-35
2021/01/26 05:35:19;;;;;;;50.47;44.20;;;18.90;48.20;;;;;;4453001;59;21428;-33
2021/01/26 05:40:30;;;;;;;51.53;45.33;;;18.80;48.70;;;;;;4458483;59;21062;-34
2021/01/26 05:45:44;;;;;;;53.28;45.08;;;18.80;48.10;;;;;;4452477;59;21038;-23
2021/01/26 05:50:47;;;;;;;48.45;42.55;;;18.80;48.20;;;;;;4468920;59;21042;-37
2021/01/26 05:56:08;;;;;;;52.03;44.33;;;18.80;47.90;;;;;;4460461;59;21050;-36
2021/01/26 06:01:11;;;;;;;51.75;43.13;;;18.80;48.20;;;;;;4456236;59;21553;-34
2021/01/26 06:06:16;;;;;;;50.35;43.25;;;18.80;48.60;;;;;;4461382;59;21129;-38
2021/01/26 06:11:27;;;;;;;49.83;42.42;;;18.80;48.30;;;;;;4460196;59;21543;-33
2021/01/26 06:16:28;;;;;;;48.08;41.15;;;18.80;48.30;;;;;;4464122;59;21531;-34
2021/01/26 06:21:52;;;;;;;47.22;40.92;;;18.80;48.30;;;;;;4441732;59;21041;-27
2021/01/26 06:27:38;;;;;;;47.20;41.03;;;18.80;48.00;;;;;;4449891;59;21041;-31
2021/01/26 06:39:07;;;;;;;46.07;39.53;;;18.80;48.20;;;;;;4451002;59;21134;-36
2021/01/26 06:44:46;;;;;;;47.30;40.50;;;18.80;48.40;;;;;;4458330;59;21130;-33
2021/01/26 06:51:48;;;;;;;47.72;40.53;;;18.80;48.20;;;;;;4441098;59;21033;-34
2021/01/26 06:57:33;;;;;;;47.25;40.15;;;18.80;48.30;;;;;;4476334;59;21093;-35
2021/01/26 07:06:12;;;;;;;44.85;38.33;;;18.80;48.00;;;;;;4445054;59;21098;-38
2021/01/26 07:17:07;;;;;;;46.37;40.17;;;18.80;48.10;;;;;;4440831;59;21625;-35
2021/01/26 07:25:17;;;;;;;43.67;37.80;;;18.80;48.10;;;;;;4444214;59;21066;-35
2021/01/26 07:30:31;;;;;;;44.13;39.30;;;18.80;48.40;;;;;;4445227;59;21159;-34
2021/01/26 07:35:52;;;;;;;44.17;39.10;;;18.80;48.10;;;;;;4450429;59;21038;-26
2021/01/26 07:43:38;;;;;;;46.40;39.80;;;18.80;47.90;;;;;;4452549;59;21176;-32
2021/01/26 07:50:05;;;;;;;44.97;39.22;;;18.80;48.10;;;;;;4442090;59;21123;-29
2021/01/26 07:55:36;;;;;;;45.05;38.42;;;18.80;48.10;;;;;;4449581;59;21579;-34
2021/01/26 08:01:17;;;;;;;46.22;39.45;;;18.80;48.00;;;;;;4441967;59;21152;-39
2021/01/26 08:06:50;;;;;;;47.40;39.13;;;18.80;48.00;;;;;;4446569;59;22099;-24
2021/01/26 08:12:08;;;;;;;43.97;37.08;;;18.80;47.90;;;;;;4451825;59;21045;-32
2021/01/26 08:17:13;;;;;;;48.33;40.80;;;18.90;48.40;;;;;;4462315;59;21037;-32
2021/01/26 08:22:29;;;;;;;48.55;40.30;;;18.90;48.70;;;;;;4440770;63;21219;-30
2021/01/26 08:29:01;;;;;;;47.35;39.15;;;19.00;49.00;;;;;;4452903;59;21059;-32
2021/01/26 08:37:55;;;;;;;49.25;40.63;;;19.00;49.00;;;;;;4439017;59;21046;-28
2021/01/26 08:43:04;;;;;;;54.72;44.10;;;19.20;49.70;;;;;;4446368;59;21125;-35
2021/01/26 08:49:17;;;;;;;53.17;44.33;;;19.30;49.90;;;;;;4442573;59;21072;-33
2021/01/26 08:54:37;;;;;;;59.30;48.63;;;19.30;50.00;;;;;;4444558;59;21065;-28
2021/01/26 08:59:37;;;;;;;59.28;47.47;;;19.30;50.20;;;;;;4470284;59;21097;-26
2021/01/26 09:04:40;;;;;;;59.45;48.50;;;19.30;50.10;;;;;;4449268;59;21045;-29
2021/01/26 09:09:49;;;;;;;68.18;55.28;;;19.30;50.50;;;;;;4439440;63;21089;-29
2021/01/26 09:14:54;;;;;;;70.65;57.38;;;19.40;51.00;;;;;;4451106;59;21061;-31
2021/01/26 09:20:42;;;;;;;74.25;55.95;;;19.30;50.40;;;;;;4477153;59;21074;-29
2021/01/26 09:25:45;;;;;;;75.62;57.55;;;19.30;50.40;;;;;;4441235;59;21081;-24
2021/01/26 09:30:49;;;;;;;69.80;55.70;;;19.30;50.30;;;;;;4478098;59;21137;-30
2021/01/26 09:36:04;;;;;;;72.55;59.40;;;19.40;50.50;;;;;;4467166;59;21587;-30
2021/01/26 09:41:23;;;;;;;71.00;56.17;;;19.40;50.40;;;;;;4454929;59;21173;-25
2021/01/26 09:46:36;;;;;;;77.28;62.80;;;19.40;50.40;;;;;;4439094;63;21081;-29
2021/01/26 09:51:42;;;;;;;81.75;63.58;;;19.40;50.50;;;;;;4443903;59;21105;-31
2021/01/26 09:56:44;;;;;;;83.43;64.50;;;19.50;50.80;;;;;;4440808;59;21251;-28
2021/01/26 10:01:47;;;;;;;81.15;64.40;;;19.50;50.90;;;;;;4443573;59;21530;-29
2021/01/26 10:06:49;;;;;;;84.57;66.35;;;19.60;51.20;;;;;;4449801;59;21171;-24
2021/01/26 10:11:52;;;;;;;89.95;68.78;;;19.60;51.40;;;;;;4451529;59;21844;-29
2021/01/26 10:16:55;;;;;;;88.62;67.60;;;19.60;51.60;;;;;;4439421;63;21066;-28
2021/01/26 10:22:09;;;;;;;87.20;69.30;;;19.60;51.70;;;;;;4439230;63;21070;-29
2021/01/26 10:27:14;;;;;;;89.72;71.35;;;19.70;52.00;;;;;;4461541;59;21069;-30
2021/01/26 10:32:43;;;;;;;85.45;68.53;;;19.70;52.20;;;;;;4466061;59;21038;-29
2021/01/26 10:37:44;;;;;;;92.32;74.65;;;19.70;52.20;;;;;;4476477;59;21201;-33
2021/01/26 10:43:30;;;;;;;92.82;74.50;;;19.80;52.50;;;;;;4448042;59;21603;-35
2021/01/26 10:48:37;;;;;;;89.03;72.03;;;19.80;52.70;;;;;;4442736;59;21065;-30
2021/01/26 10:53:48;;;;;;;93.43;74.62;;;19.80;52.80;;;;;;4459518;59;21639;-31
2021/01/26 10:58:50;;;;;;;91.18;72.65;;;19.80;52.90;;;;;;4469325;59;21626;-25
2021/01/26 11:03:52;;;;;;;95.78;76.50;;;19.80;53.10;;;;;;4439093;63;21057;-31
2021/01/26 11:08:54;;;;;;;93.90;75.25;;;19.80;53.00;;;;;;4470725;59;21089;-28
2021/01/26 11:13:57;;;;;;;98.03;77.22;;;19.90;53.30;;;;;;4455634;59;21162;-33
2021/01/26 11:18:59;;;;;;;92.93;74.62;;;19.90;53.40;;;;;;4450852;59;21077;-24
2021/01/26 11:24:00;;;;;;;102.97;81.95;;;19.90;53.60;;;;;;4450606;59;21616;-33
2021/01/26 11:29:02;;;;;;;101.53;78.00;;;19.90;53.70;;;;;;4449081;59;21062;-26
2021/01/26 11:34:04;;;;;;;95.12;80.15;;;19.90;53.80;;;;;;4456174;59;22327;-27
2021/01/26 11:39:05;;;;;;;100.00;79.85;;;20.00;53.90;;;;;;4472185;59;21628;-27
2021/01/26 11:44:06;;;;;;;96.30;77.50;;;20.00;53.90;;;;;;4444083;59;21070;-33
2021/01/26 11:49:08;;;;;;;104.28;81.47;;;20.00;54.00;;;;;;4447970;59;21638;-27
2021/01/26 11:54:09;;;;;;;96.95;80.05;;;20.00;54.10;;;;;;4467255;59;21181;-32
2021/01/26 11:59:10;;;;;;;102.32;80.40;;;20.00;54.20;;;;;;4437633;63;21093;-31
2021/01/26 12:04:11;;;;;;;101.10;80.12;;;20.00;54.20;;;;;;4439718;59;21049;-27
2021/01/26 12:09:13;;;;;;;106.60;83.78;;;20.00;54.30;;;;;;4441844;59;21636;-29
2021/01/26 12:14:14;;;;;;;106.80;85.87;;;20.00;54.30;;;;;;4446034;59;21572;-29
2021/01/26 12:19:15;;;;;;;108.43;87.32;;;20.00;54.30;;;;;;4446842;59;21073;-31
2021/01/26 12:24:16;;;;;;;121.03;95.62;;;20.10;54.50;;;;;;4459901;58;21041;-29
2021/01/26 12:29:17;;;;;;;118.28;94.45;;;20.00;53.80;;;;;;4447104;59;21064;-26
2021/01/26 12:34:18;;;;;;;114.00;92.62;;;19.90;53.70;;;;;;4439885;63;21591;-34
2021/01/26 12:39:19;;;;;;;114.25;92.60;;;19.90;53.60;;;;;;4456368;59;21073;-27
2021/01/26 12:44:20;;;;;;;117.13;93.62;;;19.80;53.40;;;;;;4447438;59;21114;-28
2021/01/26 12:49:22;;;;;;;117.40;96.07;;;19.80;53.30;;;;;;4447546;59;21118;-27
2021/01/26 12:54:23;;;;;;;114.50;91.40;;;19.80;53.20;;;;;;4445846;59;21543;-27
2021/01/26 12:59:24;;;;;;;114.82;93.95;;;19.80;52.90;;;;;;4439806;59;21106;-30
2021/01/26 13:04:25;;;;;;;115.97;92.50;;;19.90;53.00;;;;;;4453379;59;22260;-29
2021/01/26 13:09:26;;;;;;;118.82;95.78;;;19.90;53.10;;;;;;4445157;59;21053;-27
2021/01/26 13:14:27;;;;;;;112.62;93.28;;;19.90;53.20;;;;;;4442152;59;21701;-27
2021/01/26 13:19:28;;;;;;;118.93;98.03;;;19.90;53.30;;;;;;4439156;60;21623;-24
2021/01/26 13:24:29;;;;;;;122.07;98.28;;;19.90;53.50;;;;;;4443019;59;21058;-36
2021/01/26 13:29:30;;;;;;;121.32;99.68;;;19.90;53.50;;;;;;4454073;59;21579;-28
2021/01/26 13:34:31;;;;;;;120.65;96.55;;;20.00;53.60;;;;;;4442910;59;21121;-33
2021/01/26 13:39:32;;;;;;;115.32;91.32;;;20.00;53.80;;;;;;4442602;59;21066;-31
2021/01/26 13:44:33;;;;;;;116.32;93.07;;;20.00;53.90;;;;;;4443316;59;21125;-29
2021/01/26 13:49:33;;;;;;;115.15;93.20;;;20.00;54.10;;;;;;4439530;63;21169;-33
2021/01/26 13:54:34;;;;;;;119.62;95.50;;;20.00;54.20;;;;;;4445923;59;21218;-32
2021/01/26 13:59:36;;;;;;;112.07;92.20;;;20.00;54.30;;;;;;4438427;60;21096;-29
2021/01/26 14:04:36;;;;;;;117.30;93.82;;;20.10;54.40;;;;;;4458558;59;21634;-30
2021/01/26 14:09:37;;;;;;;117.55;93.30;;;20.10;54.40;;;;;;4471652;59;21185;-32
2021/01/26 14:14:38;;;;;;;121.45;99.07;;;20.10;54.90;;;;;;4445627;59;21499;-25
2021/01/26 14:19:39;;;;;;;123.75;101.03;;;20.00;54.20;;;;;;4448377;59;21081;-32
2021/01/26 14:24:40;;;;;;;127.70;102.05;;;20.00;54.20;;;;;;4440193;63;21507;-30
2021/01/26 14:29:41;;;;;;;119.57;97.00;;;20.00;54.20;;;;;;4444170;59;21624;-28
2021/01/26 14:34:42;;;;;;;120.57;98.20;;;20.00;54.20;;;;;;4440497;59;21133;-29
2021/01/26 14:39:44;;;;;;;119.50;99.15;;;20.00;54.20;;;;;;4445639;59;21058;-32
2021/01/26 14:44:45;;;;;;;122.10;99.53;;;19.90;54.20;;;;;;4439938;63;21571;-29
2021/01/26 14:49:46;;;;;;;120.85;99.78;;;19.90;54.10;;;;;;4459154;59;21199;-26
2021/01/26 14:54:47;;;;;;;121.90;100.18;;;19.90;54.10;;;;;;4439758;63;21684;-31
2021/01/26 14:59:48;;;;;;;119.43;99.05;;;19.90;54.10;;;;;;4443844;59;21137;-26
2021/01/26 15:04:49;;;;;;;122.50;98.95;;;19.90;54.10;;;;;;4483979;59;21062;-28
2021/01/26 15:09:50;;;;;;;121.80;99.45;;;19.90;54.10;;;;;;4460418;59;21034;-28
2021/01/26 15:14:51;;;;;;;124.82;102.65;;;19.90;54.10;;;;;;4442663;59;21745;-24
2021/01/26 15:19:51;;;;;;;122.57;100.93;;;19.90;54.10;;;;;;4446945;59;21093;-30
2021/01/26 15:24:53;;;;;;;125.03;103.97;;;19.90;54.00;;;;;;4475506;59;21167;-33
2021/01/26 15:29:53;;;;;;;123.97;101.95;;;19.90;54.00;;;;;;4466933;59;21045;-25
2021/01/26 15:34:54;;;;;;;123.82;101.35;;;19.80;53.80;;;;;;4447365;59;21547;-29
2021/01/26 15:39:56;;;;;;;123.00;102.15;;;19.90;53.40;;;;;;4469869;59;21536;-31
2021/01/26 15:44:57;;;;;;;127.82;102.82;;;19.90;53.30;;;;;;4446600;59;21137;-30
2021/01/26 15:49:57;;;;;;;117.82;98.47;;;19.90;53.40;;;;;;4440511;59;21577;-30
2021/01/26 15:54:58;;;;;;;122.03;99.07;;;19.80;53.30;;;;;;4440156;63;21062;-33
2021/01/26 15:59:59;;;;;;;120.57;100.80;;;19.90;53.40;;;;;;4438237;63;21070;-29
2021/01/26 16:05:00;;;;;;;126.05;104.00;;;19.90;53.40;;;;;;4439192;63;22272;-32
2021/01/26 16:10:01;;;;;;;125.72;101.57;;;19.80;53.30;;;;;;4446366;59;21108;-35
2021/01/26 16:15:03;;;;;;;123.57;98.97;;;19.80;53.10;;;;;;4440131;60;21515;-29
2021/01/26 16:20:04;;;;;;;123.03;101.90;;;19.70;53.00;;;;;;4443840;59;21082;-28
2021/01/26 16:25:07;;;;;;;125.72;103.90;;;19.60;52.90;;;;;;4444961;59;21038;-34
2021/01/26 16:30:09;;;;;;;124.53;103.00;;;19.60;52.80;;;;;;4467476;59;21101;-26
2021/01/26 16:35:12;;;;;;;124.38;102.72;;;19.60;52.70;;;;;;4444302;59;21038;-35
2021/01/26 16:40:18;;;;;;;124.45;99.10;;;19.50;52.60;;;;;;4440144;63;21097;-31
2021/01/26 16:45:25;;;;;;;122.37;101.57;;;19.50;52.50;;;;;;4471899;59;21041;-32
2021/01/26 16:50:28;;;;;;;124.40;104.55;;;19.50;52.50;;;;;;4454365;59;21157;-32
2021/01/26 16:55:30;;;;;;;125.15;101.62;;;19.40;52.20;;;;;;4452352;59;21147;-32
2021/01/26 17:00:33;;;;;;;125.07;101.75;;;19.50;52.30;;;;;;4451794;59;21512;-35
2021/01/26 17:05:37;;;;;;;131.18;104.32;;;19.40;52.10;;;;;;4491857;59;21110;-34
2021/01/26 17:10:39;;;;;;;128.85;105.12;;;19.40;52.10;;;;;;4442692;59;21512;-33
2021/01/26 17:15:41;;;;;;;131.80;104.85;;;19.40;52.10;;;;;;4440708;63;21683;-29
2021/01/26 17:20:44;;;;;;;126.82;103.53;;;19.40;52.00;;;;;;4449207;59;21121;-31
2021/01/26 17:25:48;;;;;;;126.35;102.55;;;19.40;51.80;;;;;;4492169;59;21090;-34
2021/01/26 17:30:50;;;;;;;134.37;106.20;;;19.30;51.60;;;;;;4453116;59;21049;-36
2021/01/26 17:35:56;;;;;;;123.97;103.55;;;19.30;51.70;;;;;;4452446;59;21219;-38
2021/01/26 17:40:58;;;;;;;130.95;105.95;;;19.30;51.80;;;;;;4439401;60;21535;-31
2021/01/26 17:45:59;;;;;;;131.05;104.85;;;19.30;51.50;;;;;;4443496;59;21500;-31
2021/01/26 17:51:00;;;;;;;134.80;108.47;;;19.30;51.70;;;;;;4485237;59;21122;-36
2021/01/26 17:56:00;;;;;;;130.87;105.22;;;19.30;51.30;;;;;;4448955;59;21151;-26
2021/01/26 18:01:02;;;;;;;137.50;108.75;;;19.30;51.50;;;;;;4457363;59;21069;-34
2021/01/26 18:06:04;;;;;;;130.80;107.00;;;19.30;51.10;;;;;;4446780;59;21050;-32
2021/01/26 18:11:05;;;;;;;126.47;100.87;;;19.30;51.10;;;;;;4457047;59;21532;-30
2021/01/26 18:16:06;;;;;;;130.27;105.87;;;19.30;51.00;;;;;;4442001;59;21041;-29
2021/01/26 18:21:07;;;;;;;132.43;104.95;;;19.30;50.90;;;;;;4441785;59;21058;-35
2021/01/26 18:26:08;;;;;;;129.87;104.40;;;19.20;51.00;;;;;;4443197;59;21511;-27
2021/01/26 18:31:09;;;;;;;131.05;106.95;;;19.30;50.80;;;;;;4459395;59;21102;-30
2021/01/26 18:36:10;;;;;;;130.57;106.10;;;19.20;50.60;;;;;;4439962;59;21037;-32
2021/01/26 18:41:12;;;;;;;132.35;107.25;;;19.20;50.80;;;;;;4459006;59;21580;-28
2021/01/26 18:46:14;;;;;;;131.30;107.50;;;19.20;50.80;;;;;;4475936;59;21038;-37
2021/01/26 18:51:15;;;;;;;133.87;108.35;;;19.20;50.50;;;;;;4440925;59;21603;-30
2021/01/26 18:56:16;;;;;;;136.77;110.57;;;19.20;50.50;;;;;;4441399;59;21070;-33
2021/01/26 19:01:16;;;;;;;135.45;110.03;;;19.20;50.50;;;;;;4454378;59;21655;-38
2021/01/26 19:06:19;;;;;;;134.87;107.60;;;19.20;50.30;;;;;;4439503;63;21182;-35
2021/01/26 19:11:20;;;;;;;136.15;107.80;;;19.20;50.40;;;;;;4440608;63;21038;-31
2021/01/26 19:16:22;;;;;;;136.45;110.95;;;19.20;50.30;;;;;;4456201;59;21068;-33
2021/01/26 19:21:25;;;;;;;133.45;109.85;;;19.20;50.20;;;;;;4446956;59;21190;-33
2021/01/26 19:26:26;;;;;;;136.32;111.25;;;19.20;50.10;;;;;;4447396;59;21524;-28
2021/01/26 19:31:27;;;;;;;132.73;107.68;;;19.20;50.20;;;;;;4439953;63;21057;-28
2021/01/26 19:36:28;;;;;;;140.25;111.47;;;19.20;50.20;;;;;;4478019;59;21122;-35
2021/01/26 19:41:29;;;;;;;140.55;113.50;;;19.20;49.90;;;;;;4474080;59;21544;-29
2021/01/26 19:46:31;;;;;;;141.23;115.00;;;19.20;50.20;;;;;;4471657;59;21539;-33
2021/01/26 19:51:32;;;;;;;136.48;109.57;;;19.10;50.00;;;;;;4446163;59;21117;-31
2021/01/26 19:56:35;;;;;;;137.93;112.72;;;19.20;50.00;;;;;;4458908;59;21555;-37
2021/01/26 20:01:36;;;;;;;140.05;111.53;;;19.20;50.10;;;;;;4447946;59;21113;-33
2021/01/26 20:06:36;;;;;;;141.60;111.88;;;19.20;49.80;;;;;;4444903;59;21547;-33
2021/01/26 20:11:37;;;;;;;143.85;114.03;;;19.20;50.00;;;;;;4459353;59;21065;-32
2021/01/26 20:16:38;;;;;;;138.90;110.63;;;19.20;49.70;;;;;;4447961;59;21577;-29
2021/01/26 20:21:39;;;;;;;140.07;112.85;;;19.20;49.80;;;;;;4439942;63;21133;-32
2021/01/26 20:26:41;;;;;;;141.55;112.57;;;19.10;50.40;;;;;;4464996;59;21041;-29
2021/01/26 20:31:42;;;;;;;143.60;114.22;;;19.10;49.70;;;;;;4448804;59;21515;-36
2021/01/26 20:36:44;;;;;;;142.70;113.32;;;19.10;49.40;;;;;;4453388;59;21086;-31
2021/01/26 20:41:45;;;;;;;138.10;110.57;;;19.20;49.60;;;;;;4455493;59;22595;-36
2021/01/26 20:46:48;;;;;;;137.93;109.32;;;19.10;49.60;;;;;;4475282;59;21116;-30
2021/01/26 20:51:49;;;;;;;141.55;112.35;;;19.10;49.60;;;;;;4460316;59;21037;-33
2021/01/26 20:56:50;;;;;;;137.85;109.97;;;19.10;49.60;;;;;;4495050;59;21563;-36
2021/01/26 21:01:52;;;;;;;145.70;116.03;;;19.10;49.30;;;;;;4441716;59;21165;-26
2021/01/26 21:06:53;;;;;;;133.10;107.07;;;19.10;49.30;;;;;;4458324;59;21034;-37
2021/01/26 21:11:54;;;;;;;132.77;107.55;;;19.10;49.10;;;;;;4452191;59;21573;-32
2021/01/26 21:16:55;;;;;;;141.02;113.90;;;19.10;49.40;;;;;;4465155;59;21092;-36
2021/01/26 21:21:56;;;;;;;136.45;111.78;;;19.10;49.30;;;;;;4439741;60;21531;-33
2021/01/26 21:26:57;;;;;;;142.35;113.22;;;19.10;49.30;;;;;;4474570;59;21054;-33
2021/01/26 21:31:58;;;;;;;143.65;113.60;;;19.10;49.10;;;;;;4448258;59;21098;-26
2021/01/26 21:36:59;;;;;;;140.07;113.10;;;19.10;49.10;;;;;;4441071;63;21125;-30
2021/01/26 21:42:00;;;;;;;135.77;107.53;;;19.10;49.10;;;;;;4447915;59;21078;-32
2021/01/26 21:47:01;;;;;;;131.87;107.63;;;19.10;49.10;;;;;;4453386;59;21579;-29
2021/01/26 21:52:02;;;;;;;136.27;111.53;;;19.10;49.10;;;;;;4479158;59;21065;-35
2021/01/26 21:57:03;;;;;;;141.65;112.20;;;19.10;49.00;;;;;;4442551;59;21592;-35
2021/01/26 22:02:04;;;;;;;135.45;110.88;;;19.10;48.80;;;;;;4455057;59;21122;-31
2021/01/26 22:07:05;;;;;;;134.30;106.72;;;19.10;48.90;;;;;;4454613;59;21659;-36
2021/01/26 22:12:08;;;;;;;139.90;110.60;;;19.10;48.70;;;;;;4464418;59;21226;-36
2021/01/26 22:17:08;;;;;;;134.50;107.68;;;19.10;48.60;;;;;;4466334;59;21528;-29
2021/01/26 22:22:09;;;;;;;137.52;111.90;;;19.10;48.70;;;;;;4476148;59;21037;-34
2021/01/26 22:27:10;;;;;;;138.02;113.32;;;19.10;48.70;;;;;;4449096;59;21584;-32
2021/01/26 22:32:11;;;;;;;136.07;109.95;;;19.10;48.60;;;;;;4440440;63;21557;-31
2021/01/26 22:37:12;;;;;;;137.12;111.53;;;19.10;48.60;;;;;;4467203;59;21185;-33
2021/01/26 22:42:13;;;;;;;134.80;106.37;;;19.10;48.40;;;;;;4472751;59;21065;-32
2021/01/26 22:47:14;;;;;;;136.70;108.20;;;19.00;48.30;;;;;;4465969;59;21075;-33
2021/01/26 22:52:15;;;;;;;135.65;107.40;;;19.00;48.50;;;;;;4445398;59;21125;-36
2021/01/26 22:57:16;;;;;;;139.68;111.25;;;19.00;48.30;;;;;;4440011;63;22063;-37
2021/01/26 23:02:17;;;;;;;135.60;106.32;;;19.00;48.30;;;;;;4447081;59;21090;-33
2021/01/26 23:07:18;;;;;;;137.95;108.80;;;19.00;48.10;;;;;;4456170;59;21971;-34
2021/01/26 23:12:19;;;;;;;137.12;109.28;;;19.00;48.00;;;;;;4440018;63;21998;-35
2021/01/26 23:17:20;;;;;;;136.52;108.03;;;19.00;47.90;;;;;;4461235;59;21081;-36
2021/01/26 23:22:21;;;;;;;141.20;110.20;;;19.00;48.00;;;;;;4440212;63;21085;-36
2021/01/26 23:27:21;;;;;;;133.05;105.85;;;19.00;47.90;;;;;;4440405;59;22037;-33
2021/01/26 23:32:22;;;;;;;131.48;107.15;;;19.00;48.00;;;;;;4455044;59;21126;-27
2021/01/26 23:37:23;;;;;;;136.62;107.93;;;19.00;47.80;;;;;;4445797;59;21104;-28
2021/01/26 23:42:24;;;;;;;137.68;107.57;;;19.00;47.70;;;;;;4478250;59;21046;-33
2021/01/26 23:47:25;;;;;;;134.68;106.25;;;19.00;47.90;;;;;;4481391;59;21057;-25
2021/01/26 23:52:26;;;;;;;141.18;109.32;;;19.00;47.60;;;;;;4459328;59;21555;-35
2021/01/26 23:57:26;;;;;;;134.57;107.63;;;19.00;47.70;;;;;;4450414;59;21153;-31
